sensor_id;sensor_type;location;lat;lon;timestamp;P1;durP1;ratioP1;P2;durP2;ratioP2
54683;SDS011;40582;53.100;6.686;2023-01-09T00:00:24;5.10;;;2.30;;
54683;SDS011;40582;53.100;6.686;2023-01-09T00:02:51;7.50;;;2.20;;
54683;SDS011;40582;53.100;6.686;2023-01-09T00:05:17;7.85;;;2.47;;
54683;SDS011;40582;53.100;6.686;2023-01-09T00:07:44;4.88;;;2.45;;
54683;SDS011;40582;53.100;6.686;2023-01-09T00:10:10;4.85;;;2.40;;
54683;SDS011;40582;53.100;6.686;2023-01-09T00:12:36;7.75;;;2.60;;
54683;SDS011;40582;53.100;6.686;2023-01-09T00:15:02;7.88;;;2.40;;
54683;SDS011;40582;53.100;6.686;2023-01-09T00:17:29;9.07;;;3.17;;
54683;SDS011;40582;53.100;6.686;2023-01-09T00:19:54;8.13;;;2.40;;
54683;SDS011;40582;53.100;6.686;2023-01-09T00:22:20;7.93;;;2.40;;
54683;SDS011;40582;53.100;6.686;2023-01-09T00:24:46;6.28;;;2.38;;
54683;SDS011;40582;53.100;6.686;2023-01-09T00:27:12;6.20;;;2.08;;
54683;SDS011;40582;53.100;6.686;2023-01-09T00:29:38;9.93;;;2.45;;
54683;SDS011;40582;53.100;6.686;2023-01-09T00:32:06;4.22;;;2.08;;
54683;SDS011;40582;53.100;6.686;2023-01-09T00:34:35;8.25;;;2.38;;
54683;SDS011;40582;53.100;6.686;2023-01-09T00:37:02;5.65;;;2.25;;
54683;SDS011;40582;53.100;6.686;2023-01-09T00:39:27;8.52;;;2.65;;
54683;SDS011;40582;53.100;6.686;2023-01-09T00:41:53;6.35;;;2.30;;
54683;SDS011;40582;53.100;6.686;2023-01-09T00:44:37;5.10;;;1.55;;
54683;SDS011;40582;53.100;6.686;2023-01-09T00:47:10;4.85;;;1.90;;
54683;SDS011;40582;53.100;6.686;2023-01-09T00:49:39;3.10;;;1.25;;
54683;SDS011;40582;53.100;6.686;2023-01-09T00:52:06;3.97;;;1.10;;
54683;SDS011;40582;53.100;6.686;2023-01-09T00:54:35;4.93;;;1.35;;
54683;SDS011;40582;53.100;6.686;2023-01-09T00:57:02;5.15;;;1.10;;
54683;SDS011;40582;53.100;6.686;2023-01-09T00:59:27;1.70;;;0.73;;
54683;SDS011;40582;53.100;6.686;2023-01-09T01:01:53;2.38;;;0.85;;
54683;SDS011;40582;53.100;6.686;2023-01-09T01:04:19;2.88;;;0.70;;
54683;SDS011;40582;53.100;6.686;2023-01-09T01:07:03;2.05;;;0.82;;
54683;SDS011;40582;53.100;6.686;2023-01-09T01:09:47;0.75;;;0.50;;
54683;SDS011;40582;53.100;6.686;2023-01-09T01:12:13;3.83;;;1.00;;
54683;SDS011;40582;53.100;6.686;2023-01-09T01:14:39;2.15;;;0.80;;
54683;SDS011;40582;53.100;6.686;2023-01-09T01:17:05;4.97;;;0.88;;
54683;SDS011;40582;53.100;6.686;2023-01-09T01:19:32;0.75;;;0.73;;
54683;SDS011;40582;53.100;6.686;2023-01-09T01:21:58;3.00;;;1.15;;
54683;SDS011;40582;53.100;6.686;2023-01-09T01:24:23;2.67;;;1.13;;
54683;SDS011;40582;53.100;6.686;2023-01-09T01:26:49;2.53;;;1.48;;
54683;SDS011;40582;53.100;6.686;2023-01-09T01:29:15;3.70;;;1.45;;
54683;SDS011;40582;53.100;6.686;2023-01-09T01:31:40;3.08;;;1.40;;
54683;SDS011;40582;53.100;6.686;2023-01-09T01:34:06;6.90;;;2.28;;
54683;SDS011;40582;53.100;6.686;2023-01-09T01:36:32;3.25;;;1.90;;
54683;SDS011;40582;53.100;6.686;2023-01-09T01:38:58;7.18;;;2.40;;
54683;SDS011;40582;53.100;6.686;2023-01-09T01:41:24;6.80;;;2.30;;
54683;SDS011;40582;53.100;6.686;2023-01-09T01:43:55;4.65;;;2.40;;
54683;SDS011;40582;53.100;6.686;2023-01-09T01:46:26;4.85;;;2.17;;
54683;SDS011;40582;53.100;6.686;2023-01-09T01:49:02;5.53;;;2.47;;
54683;SDS011;40582;53.100;6.686;2023-01-09T01:51:34;4.28;;;1.90;;
54683;SDS011;40582;53.100;6.686;2023-01-09T01:54:05;3.65;;;2.00;;
54683;SDS011;40582;53.100;6.686;2023-01-09T01:56:44;3.40;;;1.90;;
54683;SDS011;40582;53.100;6.686;2023-01-09T02:01:52;4.07;;;1.95;;
54683;SDS011;40582;53.100;6.686;2023-01-09T02:04:21;5.30;;;1.90;;
54683;SDS011;40582;53.100;6.686;2023-01-09T02:06:47;6.18;;;2.00;;
54683;SDS011;40582;53.100;6.686;2023-01-09T02:09:15;3.83;;;1.85;;
54683;SDS011;40582;53.100;6.686;2023-01-09T02:11:43;6.65;;;1.92;;
54683;SDS011;40582;53.100;6.686;2023-01-09T02:14:10;5.00;;;1.92;;
54683;SDS011;40582;53.100;6.686;2023-01-09T02:33:20;7.45;;;1.77;;
54683;SDS011;40582;53.100;6.686;2023-01-09T02:36:33;5.63;;;1.90;;
54683;SDS011;40582;53.100;6.686;2023-01-09T02:39:34;5.32;;;2.28;;
54683;SDS011;40582;53.100;6.686;2023-01-09T02:42:10;8.25;;;2.47;;
54683;SDS011;40582;53.100;6.686;2023-01-09T02:44:43;8.48;;;2.30;;
54683;SDS011;40582;53.100;6.686;2023-01-09T02:49:41;6.88;;;2.50;;
54683;SDS011;40582;53.100;6.686;2023-01-09T02:54:46;8.73;;;2.50;;
54683;SDS011;40582;53.100;6.686;2023-01-09T03:00:00;4.38;;;2.20;;
54683;SDS011;40582;53.100;6.686;2023-01-09T03:07:52;12.93;;;3.28;;
54683;SDS011;40582;53.100;6.686;2023-01-09T03:10:24;8.40;;;2.67;;
54683;SDS011;40582;53.100;6.686;2023-01-09T03:13:02;7.05;;;2.50;;
54683;SDS011;40582;53.100;6.686;2023-01-09T03:15:31;9.80;;;3.30;;
54683;SDS011;40582;53.100;6.686;2023-01-09T03:17:59;8.38;;;2.97;;
54683;SDS011;40582;53.100;6.686;2023-01-09T03:20:26;11.52;;;3.72;;
54683;SDS011;40582;53.100;6.686;2023-01-09T03:25:20;9.30;;;2.65;;
54683;SDS011;40582;53.100;6.686;2023-01-09T03:27:47;5.85;;;3.00;;
54683;SDS011;40582;53.100;6.686;2023-01-09T03:30:16;16.20;;;3.60;;
54683;SDS011;40582;53.100;6.686;2023-01-09T03:32:42;5.85;;;3.10;;
54683;SDS011;40582;53.100;6.686;2023-01-09T03:35:08;10.20;;;3.30;;
54683;SDS011;40582;53.100;6.686;2023-01-09T03:37:33;13.80;;;3.65;;
54683;SDS011;40582;53.100;6.686;2023-01-09T03:39:59;10.38;;;2.90;;
54683;SDS011;40582;53.100;6.686;2023-01-09T03:42:25;14.68;;;3.63;;
54683;SDS011;40582;53.100;6.686;2023-01-09T03:44:50;10.60;;;3.53;;
54683;SDS011;40582;53.100;6.686;2023-01-09T03:47:16;9.57;;;3.60;;
54683;SDS011;40582;53.100;6.686;2023-01-09T03:49:42;14.90;;;4.22;;
54683;SDS011;40582;53.100;6.686;2023-01-09T03:52:07;17.77;;;4.35;;
54683;SDS011;40582;53.100;6.686;2023-01-09T03:54:33;14.00;;;3.92;;
54683;SDS011;40582;53.100;6.686;2023-01-09T03:56:59;9.93;;;3.88;;
54683;SDS011;40582;53.100;6.686;2023-01-09T03:59:24;10.98;;;3.83;;
54683;SDS011;40582;53.100;6.686;2023-01-09T04:01:50;11.55;;;4.18;;
54683;SDS011;40582;53.100;6.686;2023-01-09T04:04:16;9.13;;;3.80;;
54683;SDS011;40582;53.100;6.686;2023-01-09T04:06:41;9.85;;;4.63;;
54683;SDS011;40582;53.100;6.686;2023-01-09T04:09:07;15.75;;;4.30;;
54683;SDS011;40582;53.100;6.686;2023-01-09T04:11:33;14.32;;;4.78;;
54683;SDS011;40582;53.100;6.686;2023-01-09T04:13:59;10.93;;;4.15;;
54683;SDS011;40582;53.100;6.686;2023-01-09T04:16:24;12.10;;;4.40;;
54683;SDS011;40582;53.100;6.686;2023-01-09T04:18:50;9.13;;;4.32;;
54683;SDS011;40582;53.100;6.686;2023-01-09T04:21:16;12.27;;;4.40;;
54683;SDS011;40582;53.100;6.686;2023-01-09T04:23:41;11.43;;;4.53;;
54683;SDS011;40582;53.100;6.686;2023-01-09T04:26:09;10.93;;;4.93;;
54683;SDS011;40582;53.100;6.686;2023-01-09T04:28:35;10.82;;;4.63;;
54683;SDS011;40582;53.100;6.686;2023-01-09T04:31:00;8.73;;;4.57;;
54683;SDS011;40582;53.100;6.686;2023-01-09T04:33:27;12.30;;;5.00;;
54683;SDS011;40582;53.100;6.686;2023-01-09T04:35:52;11.93;;;4.80;;
54683;SDS011;40582;53.100;6.686;2023-01-09T04:38:18;14.05;;;4.78;;
54683;SDS011;40582;53.100;6.686;2023-01-09T04:40:47;13.75;;;5.20;;
54683;SDS011;40582;53.100;6.686;2023-01-09T04:43:14;12.25;;;5.20;;
54683;SDS011;40582;53.100;6.686;2023-01-09T04:45:39;16.10;;;6.43;;
54683;SDS011;40582;53.100;6.686;2023-01-09T04:48:05;14.65;;;5.70;;
54683;SDS011;40582;53.100;6.686;2023-01-09T04:50:31;11.45;;;5.85;;
54683;SDS011;40582;53.100;6.686;2023-01-09T04:52:56;16.10;;;5.40;;
54683;SDS011;40582;53.100;6.686;2023-01-09T04:55:22;10.90;;;5.22;;
54683;SDS011;40582;53.100;6.686;2023-01-09T04:57:48;13.27;;;5.60;;
54683;SDS011;40582;53.100;6.686;2023-01-09T05:00:13;10.68;;;5.43;;
54683;SDS011;40582;53.100;6.686;2023-01-09T05:02:40;8.25;;;5.65;;
54683;SDS011;40582;53.100;6.686;2023-01-09T05:05:06;12.05;;;5.30;;
54683;SDS011;40582;53.100;6.686;2023-01-09T05:07:33;13.98;;;5.63;;
54683;SDS011;40582;53.100;6.686;2023-01-09T05:09:59;16.80;;;6.25;;
54683;SDS011;40582;53.100;6.686;2023-01-09T05:12:25;11.63;;;6.10;;
54683;SDS011;40582;53.100;6.686;2023-01-09T05:14:51;10.50;;;6.15;;
54683;SDS011;40582;53.100;6.686;2023-01-09T05:17:16;13.05;;;6.80;;
54683;SDS011;40582;53.100;6.686;2023-01-09T05:19:42;13.23;;;7.15;;
54683;SDS011;40582;53.100;6.686;2023-01-09T05:22:10;14.90;;;7.82;;
54683;SDS011;40582;53.100;6.686;2023-01-09T05:24:36;15.05;;;8.73;;
54683;SDS011;40582;53.100;6.686;2023-01-09T05:27:02;17.85;;;8.57;;
54683;SDS011;40582;53.100;6.686;2023-01-09T05:29:27;18.10;;;8.82;;
54683;SDS011;40582;53.100;6.686;2023-01-09T05:31:53;15.57;;;9.57;;
54683;SDS011;40582;53.100;6.686;2023-01-09T05:34:19;21.55;;;10.18;;
54683;SDS011;40582;53.100;6.686;2023-01-09T05:36:45;18.38;;;10.88;;
54683;SDS011;40582;53.100;6.686;2023-01-09T05:39:11;19.27;;;11.48;;
54683;SDS011;40582;53.100;6.686;2023-01-09T05:41:37;22.48;;;11.38;;
54683;SDS011;40582;53.100;6.686;2023-01-09T05:44:03;16.67;;;11.60;;
54683;SDS011;40582;53.100;6.686;2023-01-09T05:46:29;25.60;;;14.13;;
54683;SDS011;40582;53.100;6.686;2023-01-09T05:48:55;19.52;;;12.50;;
54683;SDS011;40582;53.100;6.686;2023-01-09T05:51:21;20.17;;;14.02;;
54683;SDS011;40582;53.100;6.686;2023-01-09T05:53:47;25.02;;;14.27;;
54683;SDS011;40582;53.100;6.686;2023-01-09T05:56:13;20.17;;;14.63;;
54683;SDS011;40582;53.100;6.686;2023-01-09T05:58:39;24.02;;;14.70;;
54683;SDS011;40582;53.100;6.686;2023-01-09T06:01:04;23.70;;;14.55;;
54683;SDS011;40582;53.100;6.686;2023-01-09T06:03:30;25.90;;;15.50;;
54683;SDS011;40582;53.100;6.686;2023-01-09T06:05:56;22.08;;;15.55;;
54683;SDS011;40582;53.100;6.686;2023-01-09T06:08:22;30.95;;;17.25;;
54683;SDS011;40582;53.100;6.686;2023-01-09T06:10:47;21.63;;;16.15;;
54683;SDS011;40582;53.100;6.686;2023-01-09T06:13:13;22.85;;;16.73;;
54683;SDS011;40582;53.100;6.686;2023-01-09T06:15:39;28.23;;;17.73;;
54683;SDS011;40582;53.100;6.686;2023-01-09T06:18:05;26.27;;;16.98;;
54683;SDS011;40582;53.100;6.686;2023-01-09T06:20:30;28.52;;;17.27;;
54683;SDS011;40582;53.100;6.686;2023-01-09T06:22:56;22.50;;;16.02;;
54683;SDS011;40582;53.100;6.686;2023-01-09T06:25:22;24.58;;;17.80;;
54683;SDS011;40582;53.100;6.686;2023-01-09T06:27:48;26.70;;;17.10;;
54683;SDS011;40582;53.100;6.686;2023-01-09T06:30:16;26.35;;;17.25;;
54683;SDS011;40582;53.100;6.686;2023-01-09T06:32:42;23.40;;;17.20;;
54683;SDS011;40582;53.100;6.686;2023-01-09T06:35:08;27.80;;;17.10;;
54683;SDS011;40582;53.100;6.686;2023-01-09T06:37:34;27.63;;;16.65;;
54683;SDS011;40582;53.100;6.686;2023-01-09T06:40:00;30.13;;;17.50;;
54683;SDS011;40582;53.100;6.686;2023-01-09T06:42:26;23.63;;;17.17;;
54683;SDS011;40582;53.100;6.686;2023-01-09T06:44:51;25.10;;;16.70;;
54683;SDS011;40582;53.100;6.686;2023-01-09T06:47:17;26.90;;;16.52;;
54683;SDS011;40582;53.100;6.686;2023-01-09T06:49:43;23.33;;;15.82;;
54683;SDS011;40582;53.100;6.686;2023-01-09T06:52:08;24.45;;;16.90;;
54683;SDS011;40582;53.100;6.686;2023-01-09T06:54:34;25.95;;;15.43;;
54683;SDS011;40582;53.100;6.686;2023-01-09T06:57:00;20.92;;;14.55;;
54683;SDS011;40582;53.100;6.686;2023-01-09T06:59:25;21.27;;;15.43;;
54683;SDS011;40582;53.100;6.686;2023-01-09T07:01:51;24.52;;;15.25;;
54683;SDS011;40582;53.100;6.686;2023-01-09T07:04:17;24.40;;;15.60;;
54683;SDS011;40582;53.100;6.686;2023-01-09T07:06:45;25.58;;;15.23;;
54683;SDS011;40582;53.100;6.686;2023-01-09T07:09:12;17.95;;;14.45;;
54683;SDS011;40582;53.100;6.686;2023-01-09T07:11:38;19.15;;;13.23;;
54683;SDS011;40582;53.100;6.686;2023-01-09T07:14:04;22.75;;;13.60;;
54683;SDS011;40582;53.100;6.686;2023-01-09T07:16:30;21.48;;;13.75;;
54683;SDS011;40582;53.100;6.686;2023-01-09T07:18:56;15.48;;;13.50;;
54683;SDS011;40582;53.100;6.686;2023-01-09T07:21:22;21.95;;;13.00;;
54683;SDS011;40582;53.100;6.686;2023-01-09T07:23:47;22.05;;;12.00;;
54683;SDS011;40582;53.100;6.686;2023-01-09T07:26:13;18.13;;;12.18;;
54683;SDS011;40582;53.100;6.686;2023-01-09T07:28:39;17.75;;;11.55;;
54683;SDS011;40582;53.100;6.686;2023-01-09T07:31:04;17.23;;;11.48;;
54683;SDS011;40582;53.100;6.686;2023-01-09T07:33:31;14.00;;;10.45;;
54683;SDS011;40582;53.100;6.686;2023-01-09T07:35:58;18.42;;;10.48;;
54683;SDS011;40582;53.100;6.686;2023-01-09T07:38:24;19.85;;;10.75;;
54683;SDS011;40582;53.100;6.686;2023-01-09T07:40:50;15.43;;;10.10;;
54683;SDS011;40582;53.100;6.686;2023-01-09T07:43:16;18.63;;;9.95;;
54683;SDS011;40582;53.100;6.686;2023-01-09T07:45:41;22.48;;;10.13;;
54683;SDS011;40582;53.100;6.686;2023-01-09T07:48:07;18.27;;;10.40;;
54683;SDS011;40582;53.100;6.686;2023-01-09T07:50:33;23.15;;;9.55;;
54683;SDS011;40582;53.100;6.686;2023-01-09T07:52:58;15.63;;;9.52;;
54683;SDS011;40582;53.100;6.686;2023-01-09T07:55:24;21.40;;;9.93;;
54683;SDS011;40582;53.100;6.686;2023-01-09T07:57:50;17.27;;;8.95;;
54683;SDS011;40582;53.100;6.686;2023-01-09T08:00:17;15.32;;;9.07;;
54683;SDS011;40582;53.100;6.686;2023-01-09T08:02:45;16.63;;;8.57;;
54683;SDS011;40582;53.100;6.686;2023-01-09T08:05:15;15.15;;;8.13;;
54683;SDS011;40582;53.100;6.686;2023-01-09T08:07:40;14.75;;;7.93;;
54683;SDS011;40582;53.100;6.686;2023-01-09T08:10:07;20.38;;;8.07;;
54683;SDS011;40582;53.100;6.686;2023-01-09T08:12:34;16.15;;;9.05;;
54683;SDS011;40582;53.100;6.686;2023-01-09T08:15:01;13.80;;;8.30;;
54683;SDS011;40582;53.100;6.686;2023-01-09T08:17:27;13.90;;;7.40;;
54683;SDS011;40582;53.100;6.686;2023-01-09T08:19:53;16.83;;;7.57;;
54683;SDS011;40582;53.100;6.686;2023-01-09T08:22:18;13.88;;;7.10;;
54683;SDS011;40582;53.100;6.686;2023-01-09T08:24:44;16.20;;;7.03;;
54683;SDS011;40582;53.100;6.686;2023-01-09T08:27:10;16.48;;;7.18;;
54683;SDS011;40582;53.100;6.686;2023-01-09T08:29:35;16.05;;;7.13;;
54683;SDS011;40582;53.100;6.686;2023-01-09T08:32:01;10.48;;;6.53;;
54683;SDS011;40582;53.100;6.686;2023-01-09T08:34:27;10.00;;;6.05;;
54683;SDS011;40582;53.100;6.686;2023-01-09T08:36:53;15.55;;;5.95;;
54683;SDS011;40582;53.100;6.686;2023-01-09T08:39:18;11.50;;;6.30;;
54683;SDS011;40582;53.100;6.686;2023-01-09T08:41:44;13.88;;;5.88;;
54683;SDS011;40582;53.100;6.686;2023-01-09T08:44:29;12.68;;;6.32;;
54683;SDS011;40582;53.100;6.686;2023-01-09T08:47:17;14.35;;;6.13;;
54683;SDS011;40582;53.100;6.686;2023-01-09T08:49:46;11.40;;;5.88;;
54683;SDS011;40582;53.100;6.686;2023-01-09T08:52:11;12.48;;;5.90;;
54683;SDS011;40582;53.100;6.686;2023-01-09T08:54:37;13.07;;;5.22;;
54683;SDS011;40582;53.100;6.686;2023-01-09T08:57:04;16.48;;;6.20;;
54683;SDS011;40582;53.100;6.686;2023-01-09T08:59:31;14.43;;;5.65;;
54683;SDS011;40582;53.100;6.686;2023-01-09T09:01:56;12.32;;;5.55;;
54683;SDS011;40582;53.100;6.686;2023-01-09T09:04:22;14.93;;;5.80;;
54683;SDS011;40582;53.100;6.686;2023-01-09T09:06:48;9.48;;;4.50;;
54683;SDS011;40582;53.100;6.686;2023-01-09T09:09:14;11.82;;;4.80;;
54683;SDS011;40582;53.100;6.686;2023-01-09T09:11:40;11.55;;;4.72;;
54683;SDS011;40582;53.100;6.686;2023-01-09T09:14:06;15.90;;;4.75;;
54683;SDS011;40582;53.100;6.686;2023-01-09T09:17:07;11.88;;;5.03;;
54683;SDS011;40582;53.100;6.686;2023-01-09T09:19:33;8.80;;;4.32;;
54683;SDS011;40582;53.100;6.686;2023-01-09T09:21:58;11.05;;;4.20;;
54683;SDS011;40582;53.100;6.686;2023-01-09T09:24:24;9.95;;;4.40;;
54683;SDS011;40582;53.100;6.686;2023-01-09T09:26:50;11.13;;;4.18;;
54683;SDS011;40582;53.100;6.686;2023-01-09T09:29:15;11.77;;;4.82;;
54683;SDS011;40582;53.100;6.686;2023-01-09T09:31:41;12.77;;;4.47;;
54683;SDS011;40582;53.100;6.686;2023-01-09T09:34:07;12.40;;;4.30;;
54683;SDS011;40582;53.100;6.686;2023-01-09T09:36:34;20.83;;;4.95;;
54683;SDS011;40582;53.100;6.686;2023-01-09T09:39:00;10.93;;;4.82;;
54683;SDS011;40582;53.100;6.686;2023-01-09T09:55:04;10.95;;;4.40;;
54683;SDS011;40582;53.100;6.686;2023-01-09T09:57:42;15.45;;;4.75;;
54683;SDS011;40582;53.100;6.686;2023-01-09T10:00:09;13.10;;;4.78;;
54683;SDS011;40582;53.100;6.686;2023-01-09T10:02:44;10.65;;;4.10;;
54683;SDS011;40582;53.100;6.686;2023-01-09T10:05:17;14.90;;;4.57;;
54683;SDS011;40582;53.100;6.686;2023-01-09T10:07:48;9.38;;;4.18;;
54683;SDS011;40582;53.100;6.686;2023-01-09T10:12:56;14.35;;;4.10;;
54683;SDS011;40582;53.100;6.686;2023-01-09T10:15:45;10.65;;;4.03;;
54683;SDS011;40582;53.100;6.686;2023-01-09T10:18:29;15.13;;;4.43;;
54683;SDS011;40582;53.100;6.686;2023-01-09T10:21:25;13.88;;;5.00;;
54683;SDS011;40582;53.100;6.686;2023-01-09T10:24:15;14.25;;;4.05;;
54683;SDS011;40582;53.100;6.686;2023-01-09T10:26:46;13.15;;;4.32;;
54683;SDS011;40582;53.100;6.686;2023-01-09T10:32:37;13.90;;;4.43;;
54683;SDS011;40582;53.100;6.686;2023-01-09T10:38:28;10.75;;;4.50;;
54683;SDS011;40582;53.100;6.686;2023-01-09T10:40:59;9.18;;;3.70;;
54683;SDS011;40582;53.100;6.686;2023-01-09T10:43:36;9.45;;;3.90;;
54683;SDS011;40582;53.100;6.686;2023-01-09T10:46:10;7.65;;;3.45;;
54683;SDS011;40582;53.100;6.686;2023-01-09T10:48:47;17.48;;;4.47;;
54683;SDS011;40582;53.100;6.686;2023-01-09T10:51:18;6.97;;;3.60;;
54683;SDS011;40582;53.100;6.686;2023-01-09T10:53:53;12.38;;;4.20;;
54683;SDS011;40582;53.100;6.686;2023-01-09T10:58:49;9.82;;;3.67;;
54683;SDS011;40582;53.100;6.686;2023-01-09T11:01:35;14.82;;;5.43;;
54683;SDS011;40582;53.100;6.686;2023-01-09T11:04:23;15.90;;;5.53;;
54683;SDS011;40582;53.100;6.686;2023-01-09T11:06:53;10.10;;;4.18;;
54683;SDS011;40582;53.100;6.686;2023-01-09T11:09:23;10.48;;;4.15;;
54683;SDS011;40582;53.100;6.686;2023-01-09T11:11:48;13.93;;;3.97;;
54683;SDS011;40582;53.100;6.686;2023-01-09T11:14:15;12.55;;;4.00;;
54683;SDS011;40582;53.100;6.686;2023-01-09T11:16:58;15.05;;;4.20;;
54683;SDS011;40582;53.100;6.686;2023-01-09T11:19:26;13.15;;;4.70;;
54683;SDS011;40582;53.100;6.686;2023-01-09T11:25:02;15.90;;;4.65;;
54683;SDS011;40582;53.100;6.686;2023-01-09T11:27:30;15.82;;;4.88;;
54683;SDS011;40582;53.100;6.686;2023-01-09T11:30:29;32.22;;;12.05;;
54683;SDS011;40582;53.100;6.686;2023-01-09T11:32:50;32.47;;;15.38;;
54683;SDS011;40582;53.100;6.686;2023-01-09T11:35:17;22.65;;;7.22;;
54683;SDS011;40582;53.100;6.686;2023-01-09T11:37:46;29.60;;;10.40;;
54683;SDS011;40582;53.100;6.686;2023-01-09T11:40:20;30.38;;;8.40;;
54683;SDS011;40582;53.100;6.686;2023-01-09T11:43:03;20.00;;;7.63;;
54683;SDS011;40582;53.100;6.686;2023-01-09T11:45:35;28.48;;;12.95;;
54683;SDS011;40582;53.100;6.686;2023-01-09T11:48:15;16.90;;;7.47;;
54683;SDS011;40582;53.100;6.686;2023-01-09T11:50:44;17.58;;;7.10;;
54683;SDS011;40582;53.100;6.686;2023-01-09T11:53:18;15.70;;;6.45;;
54683;SDS011;40582;53.100;6.686;2023-01-09T11:55:45;12.27;;;5.78;;
54683;SDS011;40582;53.100;6.686;2023-01-09T11:58:14;15.25;;;6.88;;
54683;SDS011;40582;53.100;6.686;2023-01-09T12:00:55;13.20;;;7.35;;
54683;SDS011;40582;53.100;6.686;2023-01-09T12:03:41;17.73;;;7.90;;
54683;SDS011;40582;53.100;6.686;2023-01-09T12:09:13;15.98;;;7.53;;
54683;SDS011;40582;53.100;6.686;2023-01-09T12:11:55;13.20;;;6.53;;
54683;SDS011;40582;53.100;6.686;2023-01-09T12:17:44;15.40;;;6.93;;
54683;SDS011;40582;53.100;6.686;2023-01-09T12:22:54;12.00;;;7.18;;
54683;SDS011;40582;53.100;6.686;2023-01-09T12:33:22;13.38;;;6.13;;
54683;SDS011;40582;53.100;6.686;2023-01-09T12:39:03;13.75;;;6.65;;
54683;SDS011;40582;53.100;6.686;2023-01-09T12:50:30;12.15;;;6.40;;
54683;SDS011;40582;53.100;6.686;2023-01-09T12:53:18;15.77;;;6.88;;
54683;SDS011;40582;53.100;6.686;2023-01-09T12:55:54;11.65;;;5.95;;
54683;SDS011;40582;53.100;6.686;2023-01-09T12:58:38;13.32;;;6.97;;
54683;SDS011;40582;53.100;6.686;2023-01-09T13:01:21;16.85;;;7.10;;
54683;SDS011;40582;53.100;6.686;2023-01-09T13:07:00;14.63;;;7.53;;
54683;SDS011;40582;53.100;6.686;2023-01-09T13:12:11;12.52;;;6.50;;
54683;SDS011;40582;53.100;6.686;2023-01-09T13:17:26;13.13;;;7.28;;
54683;SDS011;40582;53.100;6.686;2023-01-09T13:19:57;10.80;;;7.55;;
54683;SDS011;40582;53.100;6.686;2023-01-09T13:22:23;12.63;;;7.45;;
54683;SDS011;40582;53.100;6.686;2023-01-09T13:27:59;14.20;;;7.15;;
54683;SDS011;40582;53.100;6.686;2023-01-09T13:33:31;11.32;;;7.68;;
54683;SDS011;40582;53.100;6.686;2023-01-09T13:38:28;17.80;;;8.18;;
54683;SDS011;40582;53.100;6.686;2023-01-09T13:43:57;18.60;;;8.88;;
54683;SDS011;40582;53.100;6.686;2023-01-09T13:46:34;17.85;;;8.60;;
54683;SDS011;40582;53.100;6.686;2023-01-09T13:49:01;19.33;;;8.98;;
54683;SDS011;40582;53.100;6.686;2023-01-09T13:54:08;16.92;;;10.00;;
54683;SDS011;40582;53.100;6.686;2023-01-09T13:59:43;15.43;;;9.98;;
54683;SDS011;40582;53.100;6.686;2023-01-09T14:05:02;20.52;;;10.80;;
54683;SDS011;40582;53.100;6.686;2023-01-09T14:07:50;18.27;;;10.30;;
54683;SDS011;40582;53.100;6.686;2023-01-09T14:10:29;17.63;;;9.57;;
54683;SDS011;40582;53.100;6.686;2023-01-09T14:13:03;17.17;;;9.95;;
54683;SDS011;40582;53.100;6.686;2023-01-09T14:15:34;18.52;;;9.85;;
54683;SDS011;40582;53.100;6.686;2023-01-09T14:18:04;17.75;;;9.90;;
54683;SDS011;40582;53.100;6.686;2023-01-09T14:20:38;21.08;;;9.38;;
54683;SDS011;40582;53.100;6.686;2023-01-09T14:23:15;20.30;;;9.90;;
54683;SDS011;40582;53.100;6.686;2023-01-09T14:25:48;17.73;;;9.15;;
54683;SDS011;40582;53.100;6.686;2023-01-09T14:38:30;23.00;;;9.98;;
54683;SDS011;40582;53.100;6.686;2023-01-09T14:41:04;22.35;;;10.48;;
54683;SDS011;40582;53.100;6.686;2023-01-09T14:46:56;18.65;;;9.43;;
54683;SDS011;40582;53.100;6.686;2023-01-09T14:49:38;23.40;;;10.50;;
54683;SDS011;40582;53.100;6.686;2023-01-09T14:52:11;18.77;;;9.70;;
54683;SDS011;40582;53.100;6.686;2023-01-09T14:55:02;27.95;;;10.77;;
54683;SDS011;40582;53.100;6.686;2023-01-09T14:57:32;23.63;;;9.23;;
54683;SDS011;40582;53.100;6.686;2023-01-09T15:00:00;25.05;;;9.73;;
54683;SDS011;40582;53.100;6.686;2023-01-09T15:02:31;20.92;;;8.38;;
54683;SDS011;40582;53.100;6.686;2023-01-09T15:05:01;18.33;;;8.60;;
54683;SDS011;40582;53.100;6.686;2023-01-09T15:07:30;21.70;;;8.45;;
54683;SDS011;40582;53.100;6.686;2023-01-09T15:10:04;21.42;;;8.23;;
54683;SDS011;40582;53.100;6.686;2023-01-09T15:12:31;18.52;;;7.85;;
54683;SDS011;40582;53.100;6.686;2023-01-09T15:14:59;20.42;;;8.18;;
54683;SDS011;40582;53.100;6.686;2023-01-09T15:17:27;22.20;;;7.60;;
54683;SDS011;40582;53.100;6.686;2023-01-09T15:19:56;25.50;;;8.80;;
54683;SDS011;40582;53.100;6.686;2023-01-09T15:22:31;22.55;;;7.35;;
54683;SDS011;40582;53.100;6.686;2023-01-09T15:24:59;31.48;;;7.55;;
54683;SDS011;40582;53.100;6.686;2023-01-09T15:27:47;20.50;;;7.15;;
54683;SDS011;40582;53.100;6.686;2023-01-09T15:30:15;28.75;;;7.00;;
54683;SDS011;40582;53.100;6.686;2023-01-09T15:32:46;22.13;;;6.70;;
54683;SDS011;40582;53.100;6.686;2023-01-09T15:35:15;22.73;;;6.95;;
54683;SDS011;40582;53.100;6.686;2023-01-09T15:37:41;24.27;;;5.90;;
54683;SDS011;40582;53.100;6.686;2023-01-09T15:40:07;19.02;;;4.78;;
54683;SDS011;40582;53.100;6.686;2023-01-09T15:42:46;19.70;;;3.88;;
54683;SDS011;40582;53.100;6.686;2023-01-09T15:48:12;18.80;;;3.92;;
54683;SDS011;40582;53.100;6.686;2023-01-09T15:50:42;19.92;;;3.83;;
54683;SDS011;40582;53.100;6.686;2023-01-09T15:53:18;16.60;;;3.72;;
54683;SDS011;40582;53.100;6.686;2023-01-09T16:01:00;22.00;;;3.83;;
54683;SDS011;40582;53.100;6.686;2023-01-09T16:03:34;13.23;;;3.08;;
54683;SDS011;40582;53.100;6.686;2023-01-09T16:06:08;16.13;;;3.03;;
54683;SDS011;40582;53.100;6.686;2023-01-09T16:08:41;13.35;;;3.03;;
54683;SDS011;40582;53.100;6.686;2023-01-09T16:11:23;13.65;;;3.00;;
54683;SDS011;40582;53.100;6.686;2023-01-09T16:13:56;15.15;;;2.95;;
54683;SDS011;40582;53.100;6.686;2023-01-09T16:16:29;16.13;;;3.65;;
54683;SDS011;40582;53.100;6.686;2023-01-09T16:18:57;14.88;;;3.05;;
54683;SDS011;40582;53.100;6.686;2023-01-09T16:26:38;12.57;;;3.42;;
54683;SDS011;40582;53.100;6.686;2023-01-09T16:32:00;18.85;;;4.50;;
54683;SDS011;40582;53.100;6.686;2023-01-09T16:34:27;24.52;;;4.60;;
54683;SDS011;40582;53.100;6.686;2023-01-09T16:36:53;19.05;;;5.63;;
54683;SDS011;40582;53.100;6.686;2023-01-09T16:39:19;21.35;;;4.93;;
54683;SDS011;40582;53.100;6.686;2023-01-09T16:41:44;18.05;;;4.15;;
54683;SDS011;40582;53.100;6.686;2023-01-09T16:44:46;13.90;;;3.97;;
54683;SDS011;40582;53.100;6.686;2023-01-09T16:47:11;20.05;;;4.45;;
54683;SDS011;40582;53.100;6.686;2023-01-09T16:49:37;16.20;;;4.65;;
54683;SDS011;40582;53.100;6.686;2023-01-09T16:52:05;18.27;;;4.15;;
54683;SDS011;40582;53.100;6.686;2023-01-09T16:54:39;25.88;;;3.72;;
54683;SDS011;40582;53.100;6.686;2023-01-09T16:57:14;19.35;;;3.55;;
54683;SDS011;40582;53.100;6.686;2023-01-09T16:59:42;30.02;;;4.45;;
54683;SDS011;40582;53.100;6.686;2023-01-09T17:02:15;14.40;;;3.92;;
54683;SDS011;40582;53.100;6.686;2023-01-09T17:04:43;17.08;;;4.45;;
54683;SDS011;40582;53.100;6.686;2023-01-09T17:07:11;22.13;;;4.57;;
54683;SDS011;40582;53.100;6.686;2023-01-09T17:09:38;31.80;;;5.60;;
54683;SDS011;40582;53.100;6.686;2023-01-09T17:12:04;24.85;;;4.90;;
54683;SDS011;40582;53.100;6.686;2023-01-09T17:14:29;31.88;;;5.60;;
54683;SDS011;40582;53.100;6.686;2023-01-09T17:16:55;24.35;;;5.97;;
54683;SDS011;40582;53.100;6.686;2023-01-09T17:19:22;23.25;;;5.72;;